createdAt,value
2022-12-12T00:00:04.430Z,1005.93
2022-12-12T00:01:04.889Z,1005.90
2022-12-12T00:02:04.344Z,1005.94
2022-12-12T00:03:04.412Z,1005.95
2022-12-12T00:04:04.268Z,1005.93
2022-12-12T00:05:04.290Z,1005.91
2022-12-12T00:06:04.224Z,1005.93
2022-12-12T00:07:04.157Z,1005.89
2022-12-12T00:08:04.142Z,1005.91
2022-12-12T00:09:04.067Z,1005.90
2022-12-12T00:10:04.029Z,1005.90
2022-12-12T00:11:04.067Z,1005.89
2022-12-12T00:12:03.957Z,1005.92
2022-12-12T00:13:03.911Z,1005.93
2022-12-12T00:14:03.872Z,1005.90
2022-12-12T00:15:03.844Z,1005.92
2022-12-12T00:16:03.839Z,1005.86
2022-12-12T00:17:03.826Z,1005.84
2022-12-12T00:18:03.729Z,1005.80
2022-12-12T00:19:03.676Z,1005.75
2022-12-12T00:20:03.636Z,1005.74
2022-12-12T00:21:03.589Z,1005.75
2022-12-12T00:22:03.595Z,1005.74
2022-12-12T00:23:03.584Z,1005.76
2022-12-12T00:24:03.516Z,1005.77
2022-12-12T00:25:03.452Z,1005.80
2022-12-12T00:26:03.413Z,1005.80
2022-12-12T00:27:03.369Z,1005.82
2022-12-12T00:28:03.317Z,1005.84
2022-12-12T00:29:03.359Z,1005.89
2022-12-12T00:30:03.260Z,1005.92
2022-12-12T00:31:03.245Z,1005.85
2022-12-12T00:32:03.163Z,1005.87
2022-12-12T00:33:03.161Z,1005.86
2022-12-12T00:34:03.123Z,1005.82
2022-12-12T00:35:03.127Z,1005.83
2022-12-12T00:36:03.015Z,1005.85
2022-12-12T00:37:02.978Z,1005.85
2022-12-12T00:38:02.933Z,1005.88
2022-12-12T00:39:02.913Z,1005.86
2022-12-12T00:40:02.850Z,1005.86
2022-12-12T00:41:02.884Z,1005.86
2022-12-12T00:42:02.762Z,1005.88
2022-12-12T00:43:02.781Z,1005.84
2022-12-12T00:44:02.687Z,1005.87
2022-12-12T00:45:02.665Z,1005.86
2022-12-12T00:46:02.658Z,1005.87
2022-12-12T00:47:03.031Z,1005.85
2022-12-12T00:48:02.541Z,1005.86
2022-12-12T00:49:02.498Z,1005.83
2022-12-12T00:50:02.468Z,1005.83
2022-12-12T00:51:02.429Z,1005.85
2022-12-12T00:52:02.399Z,1005.80
2022-12-12T00:53:02.432Z,1005.78
2022-12-12T00:54:02.296Z,1005.77
2022-12-12T00:55:02.255Z,1005.80
2022-12-12T00:56:02.228Z,1005.81
2022-12-12T00:57:02.174Z,1005.77
2022-12-12T00:58:02.147Z,1005.80
2022-12-12T00:59:02.159Z,1005.82
2022-12-12T01:00:02.166Z,1005.82
2022-12-12T01:01:02.022Z,1005.82
2022-12-12T01:02:02.028Z,1005.83
2022-12-12T01:03:01.998Z,1005.82
2022-12-12T01:04:01.898Z,1005.82
2022-12-12T01:05:01.947Z,1005.82
2022-12-12T01:06:01.861Z,1005.80
2022-12-12T01:07:01.788Z,1005.83
2022-12-12T01:08:01.827Z,1005.80
2022-12-12T01:09:01.701Z,1005.76
2022-12-12T01:10:01.662Z,1005.81
2022-12-12T01:11:02.441Z,1005.77
2022-12-12T01:12:01.612Z,1005.75
2022-12-12T01:13:01.551Z,1005.72
2022-12-12T01:14:01.518Z,1005.69
2022-12-12T01:15:01.460Z,1005.74
2022-12-12T01:16:01.490Z,1005.78
2022-12-12T01:17:01.460Z,1005.78
2022-12-12T01:18:01.348Z,1005.83
2022-12-12T01:19:01.317Z,1005.91
2022-12-12T01:20:01.273Z,1005.91
2022-12-12T01:21:01.234Z,1005.93
2022-12-12T01:22:01.197Z,1005.95
2022-12-12T01:23:01.205Z,1005.91
2022-12-12T01:24:01.102Z,1005.92
2022-12-12T01:25:01.127Z,1005.93
2022-12-12T01:26:01.031Z,1005.92
2022-12-12T01:27:00.991Z,1005.95
2022-12-12T01:28:00.956Z,1005.94
2022-12-12T01:29:00.927Z,1005.91
2022-12-12T01:30:00.959Z,1005.94
2022-12-12T01:31:00.877Z,1005.91
2022-12-12T01:32:00.819Z,1005.88
2022-12-12T01:33:00.752Z,1005.91
2022-12-12T01:34:00.724Z,1005.86
2022-12-12T01:35:00.684Z,1005.89
2022-12-12T01:36:00.723Z,1005.94
2022-12-12T01:37:00.721Z,1005.94
2022-12-12T01:38:00.576Z,1005.95
2022-12-12T01:39:00.532Z,1005.97
2022-12-12T01:40:00.507Z,1005.98
2022-12-12T01:41:00.434Z,1005.98
2022-12-12T01:42:00.453Z,1005.91
2022-12-12T01:43:00.360Z,1005.95
2022-12-12T01:44:00.321Z,1005.98
2022-12-12T01:45:00.276Z,1005.96
2022-12-12T01:46:00.277Z,1006.00
2022-12-12T01:47:00.263Z,1006.00
2022-12-12T01:48:04.966Z,1005.99
2022-12-12T01:49:00.141Z,1006.00
2022-12-12T01:50:00.121Z,1005.99
2022-12-12T01:51:00.067Z,1005.99
2022-12-12T01:52:00.013Z,1006.03
2022-12-12T01:52:59.973Z,1005.99
2022-12-12T01:54:00.292Z,1005.99
2022-12-12T01:54:59.888Z,1005.93
2022-12-12T01:55:59.889Z,1005.91
2022-12-12T01:56:59.828Z,1005.88
2022-12-12T01:57:59.779Z,1005.92
2022-12-12T01:58:59.735Z,1005.88
2022-12-12T01:59:59.803Z,1005.90
2022-12-12T02:00:59.693Z,1005.87
2022-12-12T02:01:59.713Z,1005.84
2022-12-12T02:02:59.602Z,1005.80
2022-12-12T02:03:59.532Z,1005.80
2022-12-12T02:04:59.503Z,1005.78
2022-12-12T02:05:59.545Z,1005.82
2022-12-12T02:06:59.427Z,1005.78
2022-12-12T02:07:59.428Z,1005.79
2022-12-12T02:08:59.367Z,1005.79
2022-12-12T02:09:59.330Z,1005.79
2022-12-12T02:10:59.261Z,1005.77
2022-12-12T02:11:59.317Z,1005.78
2022-12-12T02:12:59.181Z,1005.77
2022-12-12T02:13:59.142Z,1005.79
2022-12-12T02:14:59.107Z,1005.84
2022-12-12T02:15:59.083Z,1005.81
2022-12-12T02:16:59.044Z,1005.81
2022-12-12T02:18:03.328Z,1005.80
2022-12-12T02:18:58.968Z,1005.85
2022-12-12T02:19:58.932Z,1005.89
2022-12-12T02:20:58.866Z,1005.90
2022-12-12T02:21:58.837Z,1005.93
2022-12-12T02:22:58.810Z,1005.98
2022-12-12T02:23:58.820Z,1005.96
2022-12-12T02:24:58.741Z,1005.95
2022-12-12T02:25:58.675Z,1005.93
2022-12-12T02:26:58.665Z,1005.91
2022-12-12T02:27:58.593Z,1005.92
2022-12-12T02:28:58.554Z,1005.93
2022-12-12T02:29:58.611Z,1005.95
2022-12-12T02:30:58.486Z,1005.96
2022-12-12T02:31:58.461Z,1005.89
2022-12-12T02:32:58.401Z,1005.92
2022-12-12T02:33:58.365Z,1005.89
2022-12-12T02:34:58.350Z,1005.94
2022-12-12T02:35:58.340Z,1005.92
2022-12-12T02:36:58.235Z,1005.96
2022-12-12T02:37:58.194Z,1005.90
2022-12-12T02:38:58.165Z,1005.90
2022-12-12T02:39:58.148Z,1005.89
2022-12-12T02:40:58.135Z,1005.89
2022-12-12T02:41:58.110Z,1005.88
2022-12-12T02:42:57.997Z,1005.87
2022-12-12T02:43:57.963Z,1005.85
2022-12-12T02:44:57.923Z,1005.80
2022-12-12T02:45:57.886Z,1005.80
2022-12-12T02:46:57.940Z,1005.78
2022-12-12T02:47:57.896Z,1005.77
2022-12-12T02:48:57.786Z,1005.76
2022-12-12T02:49:57.740Z,1005.73
2022-12-12T02:50:57.693Z,1005.75
2022-12-12T02:51:57.653Z,1005.78
2022-12-12T02:52:57.665Z,1005.75
2022-12-12T02:53:57.572Z,1005.76
2022-12-12T02:54:57.541Z,1005.76
2022-12-12T02:55:57.504Z,1005.76
2022-12-12T02:56:57.456Z,1005.79
2022-12-12T02:57:57.468Z,1005.83
2022-12-12T02:58:57.391Z,1005.85
2022-12-12T02:59:57.341Z,1005.86
2022-12-12T03:00:57.357Z,1005.90
2022-12-12T03:01:57.316Z,1005.85
2022-12-12T03:02:57.286Z,1005.93
2022-12-12T03:03:57.182Z,1005.91
2022-12-12T03:04:57.160Z,1005.96
2022-12-12T03:05:57.119Z,1005.99
2022-12-12T03:06:57.110Z,1005.98
2022-12-12T03:07:57.146Z,1005.93
2022-12-12T03:08:57.097Z,1005.95
2022-12-12T03:09:56.939Z,1005.96
2022-12-12T03:10:56.938Z,1005.97
2022-12-12T03:11:56.864Z,1005.99
2022-12-12T03:12:57.348Z,1006.01
2022-12-12T03:13:56.798Z,1005.95
2022-12-12T03:14:56.840Z,1005.99
2022-12-12T03:15:56.736Z,1005.96
2022-12-12T03:16:56.684Z,1005.98
2022-12-12T03:17:56.630Z,1006.01
2022-12-12T03:18:57.342Z,1005.96
2022-12-12T03:19:56.555Z,1006.01
2022-12-12T03:20:56.572Z,1005.96
2022-12-12T03:21:56.467Z,1005.99
2022-12-12T03:22:56.448Z,1005.92
2022-12-12T03:23:56.415Z,1005.97
2022-12-12T03:24:56.386Z,1005.96
2022-12-12T03:25:56.334Z,1005.92
2022-12-12T03:26:56.344Z,1005.98
2022-12-12T03:27:56.254Z,1005.95
2022-12-12T03:28:56.197Z,1005.96
2022-12-12T03:29:56.154Z,1005.94
2022-12-12T03:30:56.130Z,1005.92
2022-12-12T03:31:56.099Z,1005.97
2022-12-12T03:32:56.139Z,1005.96
2022-12-12T03:33:56.001Z,1005.97
2022-12-12T03:34:55.961Z,1005.98
2022-12-12T03:35:55.946Z,1005.97
2022-12-12T03:36:55.895Z,1005.94
2022-12-12T03:37:55.857Z,1005.95
2022-12-12T03:38:55.861Z,1005.95
2022-12-12T03:39:55.765Z,1005.92
2022-12-12T03:40:55.804Z,1005.92
2022-12-12T03:41:55.688Z,1005.91
2022-12-12T03:42:55.642Z,1005.87
2022-12-12T03:43:55.609Z,1005.87
2022-12-12T03:44:55.565Z,1005.89
2022-12-12T03:45:55.648Z,1005.88
2022-12-12T03:46:55.569Z,1005.89
2022-12-12T03:47:55.459Z,1005.91
2022-12-12T03:48:55.421Z,1005.93
2022-12-12T03:49:55.375Z,1005.92
2022-12-12T03:50:55.439Z,1005.95
2022-12-12T03:51:55.304Z,1005.94
2022-12-12T03:52:55.262Z,1005.93
2022-12-12T03:53:55.210Z,1005.93
2022-12-12T03:54:55.171Z,1005.94
2022-12-12T03:55:55.197Z,1005.94
2022-12-12T03:56:55.139Z,1005.92
2022-12-12T03:57:55.080Z,1005.94
2022-12-12T03:58:55.033Z,1005.90
2022-12-12T03:59:55.012Z,1005.91
2022-12-12T04:00:55.039Z,1005.87
2022-12-12T04:01:54.929Z,1005.89
2022-12-12T04:02:54.879Z,1005.93
2022-12-12T04:03:54.839Z,1005.88
2022-12-12T04:04:54.809Z,1005.90
2022-12-12T04:05:54.747Z,1005.89
2022-12-12T04:06:54.793Z,1005.91
2022-12-12T04:07:54.753Z,1005.89
2022-12-12T04:08:54.682Z,1005.88
2022-12-12T04:09:54.610Z,1005.89
2022-12-12T04:10:54.575Z,1005.93
2022-12-12T04:11:54.522Z,1005.98
2022-12-12T04:12:54.544Z,1005.95
2022-12-12T04:13:54.431Z,1006.00
2022-12-12T04:14:54.407Z,1005.98
2022-12-12T04:15:54.357Z,1006.01
2022-12-12T04:16:54.340Z,1006.00
2022-12-12T04:17:54.282Z,1006.00
2022-12-12T04:18:54.327Z,1006.01
2022-12-12T04:19:54.259Z,1006.03
2022-12-12T04:20:54.233Z,1006.01
2022-12-12T04:21:54.119Z,1006.06
2022-12-12T04:22:54.090Z,1006.06
2022-12-12T04:23:54.044Z,1006.08
2022-12-12T04:24:54.535Z,1006.04
2022-12-12T04:25:53.994Z,1006.04
2022-12-12T04:26:53.930Z,1006.08
2022-12-12T04:27:53.888Z,1006.08
2022-12-12T04:28:53.848Z,1006.07
2022-12-12T04:29:53.806Z,1006.10
2022-12-12T04:30:53.857Z,1006.09
2022-12-12T04:31:53.779Z,1006.10
2022-12-12T04:32:53.769Z,1006.10
2022-12-12T04:33:53.650Z,1006.11
2022-12-12T04:34:53.620Z,1006.09
2022-12-12T04:35:53.579Z,1006.11
2022-12-12T04:36:53.537Z,1006.11
2022-12-12T04:37:53.589Z,1006.11
2022-12-12T04:38:53.452Z,1006.08
2022-12-12T04:39:53.421Z,1006.08
2022-12-12T04:40:53.385Z,1006.06
2022-12-12T04:41:53.365Z,1006.10
2022-12-12T04:42:53.383Z,1006.12
2022-12-12T04:43:53.256Z,1006.10
2022-12-12T04:44:53.223Z,1006.09
2022-12-12T04:45:53.224Z,1006.10
2022-12-12T04:46:53.140Z,1006.12
2022-12-12T04:47:53.199Z,1006.08
2022-12-12T04:48:53.860Z,1006.09
2022-12-12T04:49:53.030Z,1006.12
2022-12-12T04:50:52.986Z,1006.11
2022-12-12T04:51:52.955Z,1006.11
2022-12-12T04:52:52.958Z,1006.10
2022-12-12T04:53:52.862Z,1006.13
2022-12-12T04:54:52.827Z,1006.10
2022-12-12T04:55:52.797Z,1006.12
2022-12-12T04:56:52.750Z,1006.11
2022-12-12T04:57:52.799Z,1006.11
2022-12-12T04:58:52.711Z,1006.10
2022-12-12T04:59:52.653Z,1006.10
2022-12-12T05:00:52.622Z,1006.10
2022-12-12T05:01:57.426Z,1006.10
2022-12-12T05:02:52.592Z,1006.13
2022-12-12T05:03:52.494Z,1006.07
2022-12-12T05:04:52.442Z,1006.08
2022-12-12T05:05:52.411Z,1006.10
2022-12-12T05:06:52.355Z,1006.11
2022-12-12T05:07:52.470Z,1006.10
2022-12-12T05:08:52.297Z,1006.09
2022-12-12T05:09:52.258Z,1006.10
2022-12-12T05:10:52.219Z,1006.11
2022-12-12T05:11:52.167Z,1006.14
2022-12-12T05:12:52.214Z,1006.11
2022-12-12T05:13:52.085Z,1006.13
2022-12-12T05:14:52.058Z,1006.18
2022-12-12T05:15:52.018Z,1006.18
2022-12-12T05:16:52.007Z,1006.19
2022-12-12T05:17:51.941Z,1006.19
2022-12-12T05:18:51.976Z,1006.18
2022-12-12T05:19:51.862Z,1006.16
2022-12-12T05:20:51.844Z,1006.18
2022-12-12T05:21:51.773Z,1006.17
2022-12-12T05:22:51.736Z,1006.23
2022-12-12T05:23:51.689Z,1006.25
2022-12-12T05:24:51.748Z,1006.23
2022-12-12T05:25:51.661Z,1006.27
2022-12-12T05:26:51.588Z,1006.26
2022-12-12T05:27:51.572Z,1006.27
2022-12-12T05:28:51.510Z,1006.29
2022-12-12T05:29:52.362Z,1006.27
2022-12-12T05:30:51.577Z,1006.21
2022-12-12T05:31:51.405Z,1006.27
2022-12-12T05:32:51.364Z,1006.28
2022-12-12T05:33:51.318Z,1006.24
2022-12-12T05:34:51.292Z,1006.26
2022-12-12T05:35:51.263Z,1006.28
2022-12-12T05:36:51.261Z,1006.29
2022-12-12T05:37:52.099Z,1006.31
2022-12-12T05:38:51.115Z,1006.31
2022-12-12T05:39:51.155Z,1006.30
2022-12-12T05:40:51.152Z,1006.33
2022-12-12T05:41:51.055Z,1006.33
2022-12-12T05:42:51.027Z,1006.33
2022-12-12T05:43:50.921Z,1006.38
2022-12-12T05:44:50.873Z,1006.34
2022-12-12T05:45:50.914Z,1006.35
2022-12-12T05:46:50.806Z,1006.34
2022-12-12T05:47:50.763Z,1006.37
2022-12-12T05:48:50.922Z,1006.34
2022-12-12T05:49:50.684Z,1006.38
2022-12-12T05:50:50.652Z,1006.36
2022-12-12T05:51:50.606Z,1006.38
2022-12-12T05:52:50.623Z,1006.36
2022-12-12T05:53:50.529Z,1006.37
2022-12-12T05:54:50.504Z,1006.35
2022-12-12T05:55:50.453Z,1006.33
2022-12-12T05:56:50.416Z,1006.39
2022-12-12T05:57:50.369Z,1006.40
2022-12-12T05:58:50.414Z,1006.39
2022-12-12T05:59:50.300Z,1006.44
2022-12-12T06:00:50.290Z,1006.41
2022-12-12T06:01:50.233Z,1006.41
2022-12-12T06:02:50.244Z,1006.43
2022-12-12T06:03:50.200Z,1006.42
2022-12-12T06:04:50.144Z,1006.42
2022-12-12T06:05:50.079Z,1006.42
2022-12-12T06:06:50.013Z,1006.44
2022-12-12T06:07:50.057Z,1006.43
2022-12-12T06:08:49.997Z,1006.40
2022-12-12T06:09:49.970Z,1006.44
2022-12-12T06:10:49.860Z,1006.45
2022-12-12T06:11:49.829Z,1006.43
2022-12-12T06:12:49.791Z,1006.41
2022-12-12T06:13:49.749Z,1006.41
2022-12-12T06:14:49.723Z,1006.44
2022-12-12T06:15:49.779Z,1006.44
2022-12-12T06:16:49.624Z,1006.48
2022-12-12T06:17:49.589Z,1006.46
2022-12-12T06:18:49.550Z,1006.44
2022-12-12T06:19:49.519Z,1006.45
2022-12-12T06:20:49.551Z,1006.47
2022-12-12T06:21:49.601Z,1006.45
2022-12-12T06:22:53.745Z,1006.48
2022-12-12T06:23:49.361Z,1006.49
2022-12-12T06:24:49.319Z,1006.49
2022-12-12T06:25:49.277Z,1006.48
2022-12-12T06:26:49.258Z,1006.46
2022-12-12T06:27:49.304Z,1006.45
2022-12-12T06:28:49.160Z,1006.49
2022-12-12T06:29:49.118Z,1006.51
2022-12-12T06:30:49.087Z,1006.51
2022-12-12T06:31:49.039Z,1006.51
2022-12-12T06:32:49.002Z,1006.49
2022-12-12T06:33:49.133Z,1006.54
2022-12-12T06:34:48.921Z,1006.54
2022-12-12T06:35:48.880Z,1006.57
2022-12-12T06:36:48.841Z,1006.57
2022-12-12T06:37:48.816Z,1006.61
2022-12-12T06:38:48.762Z,1006.58
2022-12-12T06:39:48.787Z,1006.62
2022-12-12T06:40:48.694Z,1006.61
2022-12-12T06:41:48.641Z,1006.61
2022-12-12T06:42:49.072Z,1006.66
2022-12-12T06:43:48.577Z,1006.67
2022-12-12T06:44:48.530Z,1006.64
2022-12-12T06:45:48.553Z,1006.68
2022-12-12T06:46:48.453Z,1006.67
2022-12-12T06:47:48.415Z,1006.73
2022-12-12T06:48:48.381Z,1006.69
2022-12-12T06:49:48.328Z,1006.71
2022-12-12T06:50:48.286Z,1006.70
2022-12-12T06:51:48.309Z,1006.67
2022-12-12T06:52:48.207Z,1006.69
2022-12-12T06:53:48.205Z,1006.65
2022-12-12T06:54:48.141Z,1006.71
2022-12-12T06:55:48.104Z,1006.67
2022-12-12T06:56:48.746Z,1006.68
2022-12-12T06:57:48.086Z,1006.64
2022-12-12T06:58:47.982Z,1006.68
2022-12-12T06:59:47.967Z,1006.69
2022-12-12T07:00:47.898Z,1006.69
2022-12-12T07:01:47.974Z,1006.69
2022-12-12T07:02:47.868Z,1006.70
2022-12-12T07:03:47.854Z,1006.70
2022-12-12T07:04:47.744Z,1006.75
2022-12-12T07:05:47.771Z,1006.75
2022-12-12T07:06:47.662Z,1006.82
2022-12-12T07:07:47.645Z,1006.74
2022-12-12T07:08:47.582Z,1006.79
2022-12-12T07:09:47.603Z,1006.71
2022-12-12T07:10:47.504Z,1006.77
2022-12-12T07:11:47.479Z,1006.75
2022-12-12T07:12:47.937Z,1006.78
2022-12-12T07:13:47.389Z,1006.84
2022-12-12T07:14:47.345Z,1006.84
2022-12-12T07:15:47.393Z,1006.84
2022-12-12T07:16:47.272Z,1006.83
2022-12-12T07:17:47.237Z,1006.87
2022-12-12T07:18:47.184Z,1006.82
2022-12-12T07:19:47.154Z,1006.87
2022-12-12T07:20:47.190Z,1006.84
2022-12-12T07:21:47.073Z,1006.89
2022-12-12T07:22:47.033Z,1006.89
2022-12-12T07:23:46.998Z,1006.88
2022-12-12T07:24:46.959Z,1006.87
2022-12-12T07:25:46.915Z,1006.88
2022-12-12T07:26:46.928Z,1006.86
2022-12-12T07:27:46.831Z,1006.94
2022-12-12T07:28:46.826Z,1006.88
2022-12-12T07:29:46.755Z,1006.94
2022-12-12T07:30:46.763Z,1006.89
2022-12-12T07:31:46.684Z,1006.93
2022-12-12T07:32:46.719Z,1006.92
2022-12-12T07:33:46.605Z,1006.98
2022-12-12T07:34:46.563Z,1006.98
2022-12-12T07:35:46.545Z,1006.95
2022-12-12T07:36:46.484Z,1006.98
2022-12-12T07:37:46.443Z,1007.01
2022-12-12T07:38:46.450Z,1006.96
2022-12-12T07:39:46.459Z,1007.02
2022-12-12T07:40:46.327Z,1007.03
2022-12-12T07:41:46.284Z,1007.02
2022-12-12T07:42:46.258Z,1007.07
2022-12-12T07:43:46.218Z,1007.10
2022-12-12T07:44:46.221Z,1007.13
2022-12-12T07:45:46.270Z,1007.12
2022-12-12T07:46:46.106Z,1007.11
2022-12-12T07:47:46.058Z,1007.16
2022-12-12T07:48:46.062Z,1007.12
2022-12-12T07:49:45.966Z,1007.14
2022-12-12T07:50:45.979Z,1007.14
2022-12-12T07:51:49.279Z,1007.14
2022-12-12T07:52:45.850Z,1007.22
2022-12-12T07:53:45.810Z,1007.18
2022-12-12T07:54:45.763Z,1007.20
2022-12-12T07:55:45.764Z,1007.21
2022-12-12T07:56:45.755Z,1007.25
2022-12-12T07:57:45.655Z,1007.22
2022-12-12T07:58:45.618Z,1007.22
2022-12-12T07:59:45.581Z,1007.26
2022-12-12T08:00:45.534Z,1007.26
2022-12-12T08:01:45.707Z,1007.29
2022-12-12T08:02:45.517Z,1007.31
2022-12-12T08:03:45.408Z,1007.33
2022-12-12T08:04:45.491Z,1007.35
2022-12-12T08:05:45.388Z,1007.35
2022-12-12T08:06:45.456Z,1007.32
2022-12-12T08:07:45.307Z,1007.36
2022-12-12T08:08:45.578Z,1007.32
2022-12-12T08:09:45.217Z,1007.32
2022-12-12T08:10:45.139Z,1007.36
2022-12-12T08:11:46.615Z,1007.36
2022-12-12T08:12:45.064Z,1007.34
2022-12-12T08:13:45.048Z,1007.39
2022-12-12T08:14:45.028Z,1007.33
2022-12-12T08:15:44.979Z,1007.35
2022-12-12T08:16:44.895Z,1007.40
2022-12-12T08:17:44.863Z,1007.40
2022-12-12T08:18:44.822Z,1007.44
2022-12-12T08:19:44.849Z,1007.45
2022-12-12T08:20:44.799Z,1007.45
2022-12-12T08:21:44.705Z,1007.43
2022-12-12T08:22:44.669Z,1007.48
2022-12-12T08:23:44.630Z,1007.50
2022-12-12T08:24:44.582Z,1007.52
2022-12-12T08:25:44.557Z,1007.52
2022-12-12T08:26:44.572Z,1007.45
2022-12-12T08:27:44.476Z,1007.48
2022-12-12T08:28:44.442Z,1007.44
2022-12-12T08:29:44.434Z,1007.46
2022-12-12T08:30:44.353Z,1007.46
2022-12-12T08:31:44.337Z,1007.49
2022-12-12T08:32:44.338Z,1007.47
2022-12-12T08:33:44.229Z,1007.50
2022-12-12T08:34:44.191Z,1007.47
2022-12-12T08:35:44.185Z,1007.48
2022-12-12T08:36:44.115Z,1007.45
2022-12-12T08:37:44.078Z,1007.48
2022-12-12T08:38:44.091Z,1007.51
2022-12-12T08:39:44.029Z,1007.52
2022-12-12T08:40:43.952Z,1007.52
2022-12-12T08:41:43.910Z,1007.56
2022-12-12T08:42:43.870Z,1007.58
2022-12-12T08:43:43.842Z,1007.66
2022-12-12T08:44:43.858Z,1007.67
2022-12-12T08:45:43.757Z,1007.64
2022-12-12T08:46:43.764Z,1007.63
2022-12-12T08:47:43.690Z,1007.65
2022-12-12T08:48:43.639Z,1007.65
2022-12-12T08:49:43.612Z,1007.68
2022-12-12T08:50:43.611Z,1007.66
2022-12-12T08:51:43.526Z,1007.69
2022-12-12T08:52:43.479Z,1007.69
2022-12-12T08:53:43.446Z,1007.72
2022-12-12T08:54:43.403Z,1007.75
2022-12-12T08:55:43.370Z,1007.80
2022-12-12T08:56:43.389Z,1007.77
2022-12-12T08:57:43.300Z,1007.78
2022-12-12T08:58:43.244Z,1007.79
2022-12-12T08:59:43.215Z,1007.79
2022-12-12T09:00:43.216Z,1007.82
2022-12-12T09:01:43.310Z,1007.90
2022-12-12T09:02:43.333Z,1007.90
2022-12-12T09:03:43.083Z,1007.85
2022-12-12T09:04:43.026Z,1007.86
2022-12-12T09:05:43.502Z,1007.86
2022-12-12T09:06:42.936Z,1007.88
2022-12-12T09:07:42.902Z,1007.90
2022-12-12T09:08:42.909Z,1007.88
2022-12-12T09:09:42.814Z,1007.99
2022-12-12T09:10:42.776Z,1007.97
2022-12-12T09:11:42.740Z,1007.95
2022-12-12T09:12:42.706Z,1007.93
2022-12-12T09:13:42.681Z,1008.00
2022-12-12T09:14:42.692Z,1007.99
2022-12-12T09:15:42.585Z,1007.96
2022-12-12T09:16:42.694Z,1008.00
2022-12-12T09:17:42.501Z,1008.01
2022-12-12T09:18:48.669Z,1008.07
2022-12-12T09:19:42.427Z,1008.03
2022-12-12T09:20:42.463Z,1008.02
2022-12-12T09:21:42.378Z,1008.03
2022-12-12T09:22:42.343Z,1008.03
2022-12-12T09:23:42.282Z,1008.04
2022-12-12T09:24:42.235Z,1008.06
2022-12-12T09:25:42.815Z,1008.06
2022-12-12T09:26:42.221Z,1008.07
2022-12-12T09:27:42.121Z,1008.07
2022-12-12T09:28:42.081Z,1008.04
2022-12-12T09:29:42.043Z,1008.06
2022-12-12T09:30:42.000Z,1008.05
2022-12-12T09:31:42.014Z,1008.02
2022-12-12T09:32:41.969Z,1008.08
2022-12-12T09:33:41.982Z,1008.11
2022-12-12T09:34:41.848Z,1008.05
2022-12-12T09:35:41.807Z,1008.07
2022-12-12T09:36:41.767Z,1008.07
2022-12-12T09:37:41.757Z,1008.04
2022-12-12T09:38:41.691Z,1008.06
2022-12-12T09:39:41.699Z,1008.08
2022-12-12T09:40:41.609Z,1008.10
2022-12-12T09:41:41.582Z,1008.06
2022-12-12T09:42:41.549Z,1008.09
2022-12-12T09:43:41.498Z,1008.12
2022-12-12T09:44:41.512Z,1008.10
2022-12-12T09:45:41.476Z,1008.07
2022-12-12T09:46:41.390Z,1008.09
2022-12-12T09:47:41.343Z,1008.07
2022-12-12T09:48:41.312Z,1008.11
2022-12-12T09:49:43.791Z,1008.12
2022-12-12T09:50:41.229Z,1008.07
2022-12-12T09:51:41.206Z,1008.05
2022-12-12T09:52:41.161Z,1008.10
2022-12-12T09:53:41.108Z,1008.06
2022-12-12T09:54:41.141Z,1008.08
2022-12-12T09:55:41.030Z,1008.10
2022-12-12T09:56:40.997Z,1008.06
2022-12-12T09:57:40.961Z,1008.11
2022-12-12T09:58:47.301Z,1008.03
2022-12-12T09:59:40.894Z,1008.07
2022-12-12T10:00:40.927Z,1008.07
2022-12-12T10:01:40.827Z,1008.09
2022-12-12T10:02:40.760Z,1008.05
2022-12-12T10:03:40.726Z,1008.04
2022-12-12T10:04:40.683Z,1008.11
2022-12-12T10:05:40.649Z,1008.06
2022-12-12T10:06:40.665Z,1008.07
2022-12-12T10:07:40.574Z,1008.06
2022-12-12T10:08:41.397Z,1008.08
2022-12-12T10:09:40.522Z,1008.03
2022-12-12T10:10:40.474Z,1008.03
2022-12-12T10:11:40.445Z,1008.06
2022-12-12T10:12:40.670Z,1008.01
2022-12-12T10:13:40.373Z,1008.01
2022-12-12T10:14:40.297Z,1008.02
2022-12-12T10:15:40.261Z,1008.00
2022-12-12T10:16:40.287Z,1008.01
2022-12-12T10:17:40.251Z,1008.02
2022-12-12T10:18:40.250Z,1008.02
2022-12-12T10:19:40.126Z,1008.08
2022-12-12T10:20:40.060Z,1008.08
2022-12-12T10:21:40.090Z,1008.09
2022-12-12T10:22:39.979Z,1008.13
2022-12-12T10:23:39.954Z,1008.17
2022-12-12T10:24:39.965Z,1008.17
2022-12-12T10:25:39.858Z,1008.18
2022-12-12T10:26:39.853Z,1008.16
2022-12-12T10:27:39.786Z,1008.16
2022-12-12T10:28:39.769Z,1008.14
2022-12-12T10:29:41.589Z,1008.20
2022-12-12T10:30:39.725Z,1008.14
2022-12-12T10:31:39.693Z,1008.15
2022-12-12T10:32:39.611Z,1008.19
2022-12-12T10:33:39.546Z,1008.19
2022-12-12T10:34:39.532Z,1008.21
2022-12-12T10:35:39.481Z,1008.20
2022-12-12T10:36:39.509Z,1008.19
2022-12-12T10:37:39.402Z,1008.26
2022-12-12T10:38:39.367Z,1008.31
2022-12-12T10:39:39.328Z,1008.25
2022-12-12T10:40:39.277Z,1008.19
2022-12-12T10:41:39.249Z,1008.22
2022-12-12T10:42:39.311Z,1008.23
2022-12-12T10:43:39.169Z,1008.21
2022-12-12T10:44:41.793Z,1008.22
2022-12-12T10:45:39.173Z,1008.17
2022-12-12T10:46:39.115Z,1008.21
2022-12-12T10:47:39.012Z,1008.19
2022-12-12T10:48:39.015Z,1008.15
2022-12-12T10:49:38.973Z,1008.15
2022-12-12T10:50:38.887Z,1008.19
2022-12-12T10:51:38.832Z,1008.19
2022-12-12T10:52:38.817Z,1008.21
2022-12-12T10:53:38.761Z,1008.16
2022-12-12T10:54:38.780Z,1008.13
2022-12-12T10:55:38.699Z,1008.15
2022-12-12T10:56:38.647Z,1008.14
2022-12-12T10:57:38.609Z,1008.15
2022-12-12T10:58:38.564Z,1008.12
2022-12-12T10:59:38.512Z,1008.11
2022-12-12T11:00:38.555Z,1008.11
2022-12-12T11:02:08.526Z,1008.12
2022-12-12T11:02:38.549Z,1008.12
2022-12-12T11:03:38.474Z,1008.14
2022-12-12T11:04:38.349Z,1008.14
2022-12-12T11:05:38.302Z,1008.11
2022-12-12T11:06:38.320Z,1008.11
2022-12-12T11:07:38.202Z,1008.09
2022-12-12T11:08:38.188Z,1008.11
2022-12-12T11:09:38.127Z,1008.14
2022-12-12T11:10:38.098Z,1008.13
2022-12-12T11:11:38.048Z,1008.06
2022-12-12T11:12:38.071Z,1008.10
2022-12-12T11:13:37.989Z,1008.11
2022-12-12T11:14:37.958Z,1008.14
2022-12-12T11:15:37.891Z,1008.15
2022-12-12T11:16:37.879Z,1008.14
2022-12-12T11:17:37.851Z,1008.15
2022-12-12T11:18:37.854Z,1008.14
2022-12-12T11:19:37.759Z,1008.12
2022-12-12T11:20:37.801Z,1008.12
2022-12-12T11:21:37.661Z,1008.16
2022-12-12T11:22:37.654Z,1008.16
2022-12-12T11:23:37.605Z,1008.09
2022-12-12T11:24:37.597Z,1008.16
2022-12-12T11:25:38.406Z,1008.09
2022-12-12T11:26:37.500Z,1008.11
2022-12-12T11:27:37.413Z,1008.12
2022-12-12T11:28:37.375Z,1008.18
2022-12-12T11:29:37.340Z,1008.22
2022-12-12T11:30:37.439Z,1008.15
2022-12-12T11:31:37.286Z,1008.16
2022-12-12T11:32:37.253Z,1008.08
2022-12-12T11:33:37.176Z,1008.14
2022-12-12T11:34:37.147Z,1008.13
2022-12-12T11:35:39.087Z,1008.10
2022-12-12T11:36:37.093Z,1008.17
2022-12-12T11:37:37.027Z,1008.19
2022-12-12T11:38:36.985Z,1008.18
2022-12-12T11:39:36.934Z,1008.24
2022-12-12T11:40:36.911Z,1008.20
2022-12-12T11:41:36.956Z,1008.26
2022-12-12T11:42:36.824Z,1008.30
2022-12-12T11:43:36.809Z,1008.30
2022-12-12T11:44:36.761Z,1008.29
2022-12-12T11:45:36.758Z,1008.31
2022-12-12T11:46:36.709Z,1008.25
2022-12-12T11:47:36.696Z,1008.30
2022-12-12T11:48:36.602Z,1008.31
2022-12-12T11:49:36.581Z,1008.32
2022-12-12T11:50:36.526Z,1008.28
2022-12-12T11:51:36.495Z,1008.33
2022-12-12T11:52:36.453Z,1008.29
2022-12-12T11:53:36.462Z,1008.34
2022-12-12T11:54:36.378Z,1008.39
2022-12-12T11:55:36.402Z,1008.29
2022-12-12T11:56:36.316Z,1008.30
2022-12-12T11:57:36.238Z,1008.31
2022-12-12T11:58:36.231Z,1008.32
2022-12-12T11:59:36.275Z,1008.30
2022-12-12T12:00:36.134Z,1008.30
2022-12-12T12:01:36.097Z,1008.30
2022-12-12T12:02:36.063Z,1008.34
2022-12-12T12:03:36.046Z,1008.37
2022-12-12T12:04:36.030Z,1008.31